sensor_id;sensor_type;location;lat;lon;timestamp;P1;durP1;ratioP1;P2;durP2;ratioP2
29414;SDS011;20303;48.302;11.914;2023-07-31T00:03:53;3.42;;;1.75;;
29414;SDS011;20303;48.302;11.914;2023-07-31T00:13:54;4.88;;;1.85;;
29414;SDS011;20303;48.302;11.914;2023-07-31T00:23:55;4.95;;;1.80;;
29414;SDS011;20303;48.302;11.914;2023-07-31T00:33:56;6.15;;;2.00;;
29414;SDS011;20303;48.302;11.914;2023-07-31T00:43:57;5.15;;;1.80;;
29414;SDS011;20303;48.302;11.914;2023-07-31T00:53:58;4.65;;;1.45;;
29414;SDS011;20303;48.302;11.914;2023-07-31T01:04:00;3.38;;;1.80;;
29414;SDS011;20303;48.302;11.914;2023-07-31T01:14:01;3.58;;;1.73;;
29414;SDS011;20303;48.302;11.914;2023-07-31T01:24:08;4.18;;;1.90;;
29414;SDS011;20303;48.302;11.914;2023-07-31T01:34:28;2.83;;;1.70;;
29414;SDS011;20303;48.302;11.914;2023-07-31T01:44:30;3.13;;;1.80;;
29414;SDS011;20303;48.302;11.914;2023-07-31T01:54:32;4.25;;;1.90;;
29414;SDS011;20303;48.302;11.914;2023-07-31T02:04:33;3.38;;;1.88;;
29414;SDS011;20303;48.302;11.914;2023-07-31T02:14:34;3.80;;;1.98;;
29414;SDS011;20303;48.302;11.914;2023-07-31T02:24:35;3.45;;;1.90;;
29414;SDS011;20303;48.302;11.914;2023-07-31T02:34:36;3.80;;;1.80;;
29414;SDS011;20303;48.302;11.914;2023-07-31T02:44:37;3.53;;;2.00;;
29414;SDS011;20303;48.302;11.914;2023-07-31T02:54:39;3.40;;;1.90;;
29414;SDS011;20303;48.302;11.914;2023-07-31T03:04:40;2.75;;;1.80;;
29414;SDS011;20303;48.302;11.914;2023-07-31T03:14:41;2.65;;;1.85;;
29414;SDS011;20303;48.302;11.914;2023-07-31T03:24:42;3.42;;;2.10;;
29414;SDS011;20303;48.302;11.914;2023-07-31T03:34:43;4.20;;;2.10;;
29414;SDS011;20303;48.302;11.914;2023-07-31T03:44:44;2.78;;;2.13;;
29414;SDS011;20303;48.302;11.914;2023-07-31T03:54:45;3.15;;;1.98;;
29414;SDS011;20303;48.302;11.914;2023-07-31T04:04:46;2.50;;;1.77;;
29414;SDS011;20303;48.302;11.914;2023-07-31T04:14:47;2.75;;;2.00;;
29414;SDS011;20303;48.302;11.914;2023-07-31T04:24:48;2.90;;;2.20;;
29414;SDS011;20303;48.302;11.914;2023-07-31T04:34:49;2.78;;;2.08;;
29414;SDS011;20303;48.302;11.914;2023-07-31T04:44:50;3.17;;;2.00;;
29414;SDS011;20303;48.302;11.914;2023-07-31T04:54:52;4.35;;;2.00;;
29414;SDS011;20303;48.302;11.914;2023-07-31T05:04:53;4.80;;;2.30;;
29414;SDS011;20303;48.302;11.914;2023-07-31T05:14:55;2.85;;;1.85;;
29414;SDS011;20303;48.302;11.914;2023-07-31T05:24:56;4.57;;;2.05;;
29414;SDS011;20303;48.302;11.914;2023-07-31T05:34:57;3.95;;;2.17;;
29414;SDS011;20303;48.302;11.914;2023-07-31T05:44:58;4.07;;;2.30;;
29414;SDS011;20303;48.302;11.914;2023-07-31T05:54:59;3.92;;;2.22;;
29414;SDS011;20303;48.302;11.914;2023-07-31T06:05:00;4.53;;;2.58;;
29414;SDS011;20303;48.302;11.914;2023-07-31T06:15:02;4.63;;;2.70;;
29414;SDS011;20303;48.302;11.914;2023-07-31T06:25:03;5.03;;;2.70;;
29414;SDS011;20303;48.302;11.914;2023-07-31T06:35:05;5.03;;;2.90;;
29414;SDS011;20303;48.302;11.914;2023-07-31T06:45:07;5.72;;;2.65;;
29414;SDS011;20303;48.302;11.914;2023-07-31T06:55:18;7.47;;;3.10;;
29414;SDS011;20303;48.302;11.914;2023-07-31T07:05:20;7.28;;;2.72;;
29414;SDS011;20303;48.302;11.914;2023-07-31T07:15:21;9.15;;;3.20;;
29414;SDS011;20303;48.302;11.914;2023-07-31T07:25:23;6.78;;;2.67;;
29414;SDS011;20303;48.302;11.914;2023-07-31T07:35:24;5.00;;;2.50;;
29414;SDS011;20303;48.302;11.914;2023-07-31T07:45:25;5.47;;;2.50;;
29414;SDS011;20303;48.302;11.914;2023-07-31T07:55:26;4.93;;;2.53;;
29414;SDS011;20303;48.302;11.914;2023-07-31T08:05:28;3.13;;;2.38;;
29414;SDS011;20303;48.302;11.914;2023-07-31T08:15:29;6.70;;;2.30;;
29414;SDS011;20303;48.302;11.914;2023-07-31T08:25:30;3.83;;;1.98;;
29414;SDS011;20303;48.302;11.914;2023-07-31T08:35:31;3.30;;;2.10;;
29414;SDS011;20303;48.302;11.914;2023-07-31T08:45:32;2.97;;;1.92;;
29414;SDS011;20303;48.302;11.914;2023-07-31T08:55:33;5.95;;;2.30;;
29414;SDS011;20303;48.302;11.914;2023-07-31T09:05:35;5.90;;;2.45;;
29414;SDS011;20303;48.302;11.914;2023-07-31T09:15:36;5.88;;;2.10;;
29414;SDS011;20303;48.302;11.914;2023-07-31T09:25:38;4.95;;;2.30;;
29414;SDS011;20303;48.302;11.914;2023-07-31T09:35:40;7.50;;;2.40;;
29414;SDS011;20303;48.302;11.914;2023-07-31T09:45:42;6.35;;;2.03;;
29414;SDS011;20303;48.302;11.914;2023-07-31T09:55:43;10.00;;;4.20;;
29414;SDS011;20303;48.302;11.914;2023-07-31T10:05:51;7.60;;;4.18;;
29414;SDS011;20303;48.302;11.914;2023-07-31T10:15:54;8.57;;;3.10;;
29414;SDS011;20303;48.302;11.914;2023-07-31T10:25:56;9.27;;;2.63;;
29414;SDS011;20303;48.302;11.914;2023-07-31T10:46:28;4.90;;;2.50;;
29414;SDS011;20303;48.302;11.914;2023-07-31T10:56:29;7.95;;;3.58;;
29414;SDS011;20303;48.302;11.914;2023-07-31T11:06:38;8.88;;;3.10;;
29414;SDS011;20303;48.302;11.914;2023-07-31T11:16:39;6.32;;;2.25;;
29414;SDS011;20303;48.302;11.914;2023-07-31T11:26:49;5.22;;;2.30;;
29414;SDS011;20303;48.302;11.914;2023-07-31T11:36:53;3.38;;;2.08;;
29414;SDS011;20303;48.302;11.914;2023-07-31T11:46:58;3.75;;;2.03;;
29414;SDS011;20303;48.302;11.914;2023-07-31T11:57:01;2.45;;;1.65;;
29414;SDS011;20303;48.302;11.914;2023-07-31T12:07:03;3.42;;;2.30;;
29414;SDS011;20303;48.302;11.914;2023-07-31T12:17:04;2.28;;;2.00;;
29414;SDS011;20303;48.302;11.914;2023-07-31T12:27:10;3.15;;;2.00;;
29414;SDS011;20303;48.302;11.914;2023-07-31T12:37:12;3.70;;;2.50;;
29414;SDS011;20303;48.302;11.914;2023-07-31T12:47:13;3.60;;;2.10;;
29414;SDS011;20303;48.302;11.914;2023-07-31T12:57:15;4.40;;;2.33;;
29414;SDS011;20303;48.302;11.914;2023-07-31T13:07:16;3.10;;;2.00;;
29414;SDS011;20303;48.302;11.914;2023-07-31T13:17:17;4.82;;;2.15;;
29414;SDS011;20303;48.302;11.914;2023-07-31T13:27:19;4.07;;;1.92;;
29414;SDS011;20303;48.302;11.914;2023-07-31T13:37:21;2.83;;;2.10;;
29414;SDS011;20303;48.302;11.914;2023-07-31T13:47:22;3.88;;;2.15;;
29414;SDS011;20303;48.302;11.914;2023-07-31T13:57:23;3.67;;;2.20;;
29414;SDS011;20303;48.302;11.914;2023-07-31T14:07:24;5.47;;;2.22;;
29414;SDS011;20303;48.302;11.914;2023-07-31T14:17:25;5.32;;;2.03;;
29414;SDS011;20303;48.302;11.914;2023-07-31T14:27:26;5.60;;;2.20;;
29414;SDS011;20303;48.302;11.914;2023-07-31T14:37:28;3.85;;;2.30;;
29414;SDS011;20303;48.302;11.914;2023-07-31T14:47:40;3.97;;;2.10;;
29414;SDS011;20303;48.302;11.914;2023-07-31T14:57:41;4.85;;;2.70;;
29414;SDS011;20303;48.302;11.914;2023-07-31T15:07:42;3.63;;;2.35;;
29414;SDS011;20303;48.302;11.914;2023-07-31T15:17:43;8.00;;;2.50;;
29414;SDS011;20303;48.302;11.914;2023-07-31T15:27:44;4.75;;;2.40;;
29414;SDS011;20303;48.302;11.914;2023-07-31T15:37:45;6.05;;;3.10;;
29414;SDS011;20303;48.302;11.914;2023-07-31T15:47:46;5.60;;;3.10;;
29414;SDS011;20303;48.302;11.914;2023-07-31T15:57:48;5.72;;;3.08;;
29414;SDS011;20303;48.302;11.914;2023-07-31T16:07:49;4.95;;;3.17;;
29414;SDS011;20303;48.302;11.914;2023-07-31T16:17:50;4.90;;;2.90;;
29414;SDS011;20303;48.302;11.914;2023-07-31T16:27:51;4.60;;;2.75;;
29414;SDS011;20303;48.302;11.914;2023-07-31T16:37:52;7.20;;;2.80;;
29414;SDS011;20303;48.302;11.914;2023-07-31T16:47:53;6.18;;;3.17;;
29414;SDS011;20303;48.302;11.914;2023-07-31T16:57:54;7.47;;;3.05;;
29414;SDS011;20303;48.302;11.914;2023-07-31T17:07:56;5.55;;;2.90;;
29414;SDS011;20303;48.302;11.914;2023-07-31T17:17:57;5.25;;;3.10;;
29414;SDS011;20303;48.302;11.914;2023-07-31T17:27:58;7.32;;;3.03;;
29414;SDS011;20303;48.302;11.914;2023-07-31T17:37:59;11.35;;;3.75;;
29414;SDS011;20303;48.302;11.914;2023-07-31T17:48:00;9.27;;;3.40;;
29414;SDS011;20303;48.302;11.914;2023-07-31T17:58:01;7.35;;;3.60;;
29414;SDS011;20303;48.302;11.914;2023-07-31T18:08:02;11.07;;;6.25;;
29414;SDS011;20303;48.302;11.914;2023-07-31T18:18:03;14.40;;;9.77;;
29414;SDS011;20303;48.302;11.914;2023-07-31T18:28:05;12.52;;;7.80;;
29414;SDS011;20303;48.302;11.914;2023-07-31T18:38:06;14.45;;;5.88;;
29414;SDS011;20303;48.302;11.914;2023-07-31T18:48:07;9.23;;;4.80;;
29414;SDS011;20303;48.302;11.914;2023-07-31T18:58:08;8.30;;;4.50;;
29414;SDS011;20303;48.302;11.914;2023-07-31T19:08:09;9.73;;;4.13;;
29414;SDS011;20303;48.302;11.914;2023-07-31T19:18:10;9.98;;;4.18;;
29414;SDS011;20303;48.302;11.914;2023-07-31T19:28:11;9.15;;;4.25;;
29414;SDS011;20303;48.302;11.914;2023-07-31T19:38:13;6.93;;;3.60;;
29414;SDS011;20303;48.302;11.914;2023-07-31T19:48:14;6.25;;;4.00;;
29414;SDS011;20303;48.302;11.914;2023-07-31T19:58:15;6.93;;;3.78;;
29414;SDS011;20303;48.302;11.914;2023-07-31T20:08:17;6.13;;;3.75;;
29414;SDS011;20303;48.302;11.914;2023-07-31T20:18:18;6.72;;;3.90;;
29414;SDS011;20303;48.302;11.914;2023-07-31T20:28:19;7.80;;;4.18;;
29414;SDS011;20303;48.302;11.914;2023-07-31T20:38:20;10.15;;;4.13;;
29414;SDS011;20303;48.302;11.914;2023-07-31T20:48:21;7.43;;;3.90;;
29414;SDS011;20303;48.302;11.914;2023-07-31T20:58:22;8.20;;;4.13;;
29414;SDS011;20303;48.302;11.914;2023-07-31T21:08:23;7.88;;;4.00;;
29414;SDS011;20303;48.302;11.914;2023-07-31T21:18:24;13.82;;;3.92;;
29414;SDS011;20303;48.302;11.914;2023-07-31T21:28:25;9.82;;;4.25;;
29414;SDS011;20303;48.302;11.914;2023-07-31T21:38:26;9.57;;;4.43;;
29414;SDS011;20303;48.302;11.914;2023-07-31T21:48:27;7.68;;;4.10;;
29414;SDS011;20303;48.302;11.914;2023-07-31T21:58:28;6.68;;;4.00;;
29414;SDS011;20303;48.302;11.914;2023-07-31T22:08:29;5.65;;;3.95;;
29414;SDS011;20303;48.302;11.914;2023-07-31T22:18:31;6.38;;;4.00;;
29414;SDS011;20303;48.302;11.914;2023-07-31T22:28:32;6.03;;;3.65;;
29414;SDS011;20303;48.302;11.914;2023-07-31T22:38:33;6.15;;;3.90;;
29414;SDS011;20303;48.302;11.914;2023-07-31T22:48:34;6.90;;;3.97;;
29414;SDS011;20303;48.302;11.914;2023-07-31T22:58:36;9.45;;;3.88;;
29414;SDS011;20303;48.302;11.914;2023-07-31T23:08:37;6.93;;;3.85;;
29414;SDS011;20303;48.302;11.914;2023-07-31T23:18:38;6.78;;;3.75;;
29414;SDS011;20303;48.302;11.914;2023-07-31T23:28:39;6.25;;;3.95;;
29414;SDS011;20303;48.302;11.914;2023-07-31T23:38:40;5.15;;;3.60;;
29414;SDS011;20303;48.302;11.914;2023-07-31T23:48:41;5.63;;;3.70;;
29414;SDS011;20303;48.302;11.914;2023-07-31T23:58:42;5.72;;;3.72;;
